Terminal Aerodrome Forecast
Issued by NWS

Home | Current Version | Previous Version | Graphics & Text | Print | Product List | Glossary On
Versions: 1 2 3 4 5 6 7 8 9 10 11 12 13 14 15 16
978
FTUS43 KABR 260527 AAC
TAFMBG
TAF AMD
KMBG 260527Z 2605/2706 VRB05KT P6SM BKN100
     FM261000 31007KT P6SM OVC050
     FM270100 VRB05KT P6SM OVC100=

USA.gov is the U.S. government's official web portal to all federal, state and local government web resources and services.